sensor_id;sensor_type;location;lat;lon;timestamp;P1;durP1;ratioP1;P2;durP2;ratioP2
5622;SDS011;2833;50.432;10.706;2022-07-23T00:00:23;4.00;;;3.70;;
5622;SDS011;2833;50.432;10.706;2022-07-23T00:02:49;13.43;;;3.50;;
5622;SDS011;2833;50.432;10.706;2022-07-23T00:05:14;4.53;;;3.50;;
5622;SDS011;2833;50.432;10.706;2022-07-23T00:07:39;4.43;;;3.97;;
5622;SDS011;2833;50.432;10.706;2022-07-23T00:10:04;4.50;;;3.70;;
5622;SDS011;2833;50.432;10.706;2022-07-23T00:12:30;5.40;;;3.70;;
5622;SDS011;2833;50.432;10.706;2022-07-23T00:14:55;4.40;;;4.00;;
5622;SDS011;2833;50.432;10.706;2022-07-23T00:17:20;3.87;;;3.43;;
5622;SDS011;2833;50.432;10.706;2022-07-23T00:19:45;3.87;;;3.60;;
5622;SDS011;2833;50.432;10.706;2022-07-23T00:22:11;5.83;;;3.80;;
5622;SDS011;2833;50.432;10.706;2022-07-23T00:24:36;4.13;;;3.73;;
5622;SDS011;2833;50.432;10.706;2022-07-23T00:27:01;3.60;;;3.30;;
5622;SDS011;2833;50.432;10.706;2022-07-23T00:29:26;4.50;;;3.57;;
5622;SDS011;2833;50.432;10.706;2022-07-23T00:31:51;4.30;;;3.90;;
5622;SDS011;2833;50.432;10.706;2022-07-23T00:34:16;6.40;;;3.80;;
5622;SDS011;2833;50.432;10.706;2022-07-23T00:36:42;4.17;;;3.37;;
5622;SDS011;2833;50.432;10.706;2022-07-23T00:39:07;10.50;;;4.97;;
5622;SDS011;2833;50.432;10.706;2022-07-23T00:41:32;5.33;;;3.60;;
5622;SDS011;2833;50.432;10.706;2022-07-23T00:44:14;7.70;;;3.70;;
5622;SDS011;2833;50.432;10.706;2022-07-23T00:46:44;4.23;;;3.87;;
5622;SDS011;2833;50.432;10.706;2022-07-23T00:49:09;4.43;;;4.03;;
5622;SDS011;2833;50.432;10.706;2022-07-23T00:51:35;3.87;;;3.57;;
5622;SDS011;2833;50.432;10.706;2022-07-23T00:54:00;3.30;;;3.10;;
5622;SDS011;2833;50.432;10.706;2022-07-23T00:56:25;4.93;;;3.80;;
5622;SDS011;2833;50.432;10.706;2022-07-23T00:58:50;3.73;;;3.30;;
5622;SDS011;2833;50.432;10.706;2022-07-23T01:01:16;3.83;;;3.40;;
5622;SDS011;2833;50.432;10.706;2022-07-23T01:03:41;8.03;;;4.10;;
5622;SDS011;2833;50.432;10.706;2022-07-23T01:06:06;3.40;;;3.20;;
5622;SDS011;2833;50.432;10.706;2022-07-23T01:08:31;4.00;;;3.60;;
5622;SDS011;2833;50.432;10.706;2022-07-23T01:10:56;3.73;;;3.43;;
5622;SDS011;2833;50.432;10.706;2022-07-23T01:13:22;4.63;;;3.50;;
5622;SDS011;2833;50.432;10.706;2022-07-23T01:15:47;5.50;;;3.43;;
5622;SDS011;2833;50.432;10.706;2022-07-23T01:18:12;4.60;;;3.73;;
5622;SDS011;2833;50.432;10.706;2022-07-23T01:20:37;3.70;;;3.40;;
5622;SDS011;2833;50.432;10.706;2022-07-23T01:23:03;4.33;;;3.93;;
5622;SDS011;2833;50.432;10.706;2022-07-23T01:25:28;3.80;;;3.50;;
5622;SDS011;2833;50.432;10.706;2022-07-23T01:27:53;4.40;;;4.00;;
5622;SDS011;2833;50.432;10.706;2022-07-23T01:30:18;7.37;;;4.27;;
5622;SDS011;2833;50.432;10.706;2022-07-23T01:32:44;4.10;;;3.73;;
5622;SDS011;2833;50.432;10.706;2022-07-23T01:35:09;5.40;;;3.83;;
5622;SDS011;2833;50.432;10.706;2022-07-23T01:37:34;5.00;;;4.10;;
5622;SDS011;2833;50.432;10.706;2022-07-23T01:40:00;4.70;;;4.20;;
5622;SDS011;2833;50.432;10.706;2022-07-23T01:42:25;4.13;;;3.70;;
5622;SDS011;2833;50.432;10.706;2022-07-23T01:44:50;4.37;;;4.00;;
5622;SDS011;2833;50.432;10.706;2022-07-23T01:47:16;4.67;;;3.97;;
5622;SDS011;2833;50.432;10.706;2022-07-23T01:49:41;4.10;;;3.70;;
5622;SDS011;2833;50.432;10.706;2022-07-23T01:52:06;5.80;;;3.63;;
5622;SDS011;2833;50.432;10.706;2022-07-23T01:54:35;4.57;;;3.77;;
5622;SDS011;2833;50.432;10.706;2022-07-23T01:57:01;5.83;;;4.10;;
5622;SDS011;2833;50.432;10.706;2022-07-23T01:59:27;4.63;;;4.23;;
5622;SDS011;2833;50.432;10.706;2022-07-23T02:01:52;4.60;;;4.20;;
5622;SDS011;2833;50.432;10.706;2022-07-23T02:04:18;3.90;;;3.60;;
5622;SDS011;2833;50.432;10.706;2022-07-23T02:06:44;5.13;;;4.20;;
5622;SDS011;2833;50.432;10.706;2022-07-23T02:09:09;4.13;;;3.73;;
5622;SDS011;2833;50.432;10.706;2022-07-23T02:11:34;7.30;;;3.77;;
5622;SDS011;2833;50.432;10.706;2022-07-23T02:13:59;4.53;;;4.13;;
5622;SDS011;2833;50.432;10.706;2022-07-23T02:16:24;13.70;;;4.37;;
5622;SDS011;2833;50.432;10.706;2022-07-23T02:18:50;4.37;;;4.00;;
5622;SDS011;2833;50.432;10.706;2022-07-23T02:21:15;4.00;;;3.67;;
5622;SDS011;2833;50.432;10.706;2022-07-23T02:23:40;4.50;;;4.10;;
5622;SDS011;2833;50.432;10.706;2022-07-23T02:26:05;5.23;;;4.17;;
5622;SDS011;2833;50.432;10.706;2022-07-23T02:28:30;4.73;;;4.23;;
5622;SDS011;2833;50.432;10.706;2022-07-23T02:30:56;4.50;;;4.10;;
5622;SDS011;2833;50.432;10.706;2022-07-23T02:33:21;6.63;;;4.07;;
5622;SDS011;2833;50.432;10.706;2022-07-23T02:35:46;4.73;;;4.23;;
5622;SDS011;2833;50.432;10.706;2022-07-23T02:38:11;5.90;;;3.77;;
5622;SDS011;2833;50.432;10.706;2022-07-23T02:40:37;4.93;;;4.43;;
5622;SDS011;2833;50.432;10.706;2022-07-23T02:43:02;5.37;;;4.07;;
5622;SDS011;2833;50.432;10.706;2022-07-23T02:45:27;5.27;;;4.30;;
5622;SDS011;2833;50.432;10.706;2022-07-23T02:47:52;4.67;;;4.30;;
5622;SDS011;2833;50.432;10.706;2022-07-23T02:50:18;5.17;;;4.27;;
5622;SDS011;2833;50.432;10.706;2022-07-23T02:52:43;4.70;;;4.00;;
5622;SDS011;2833;50.432;10.706;2022-07-23T02:55:08;4.80;;;4.40;;
5622;SDS011;2833;50.432;10.706;2022-07-23T02:57:33;4.50;;;4.10;;
5622;SDS011;2833;50.432;10.706;2022-07-23T02:59:59;5.10;;;4.53;;
5622;SDS011;2833;50.432;10.706;2022-07-23T03:02:24;4.90;;;4.40;;
5622;SDS011;2833;50.432;10.706;2022-07-23T03:04:49;4.30;;;3.90;;
5622;SDS011;2833;50.432;10.706;2022-07-23T03:07:15;7.73;;;5.27;;
5622;SDS011;2833;50.432;10.706;2022-07-23T03:09:40;5.03;;;4.60;;
5622;SDS011;2833;50.432;10.706;2022-07-23T03:12:06;7.13;;;4.77;;
5622;SDS011;2833;50.432;10.706;2022-07-23T03:14:31;5.27;;;4.70;;
5622;SDS011;2833;50.432;10.706;2022-07-23T03:16:56;9.07;;;5.20;;
5622;SDS011;2833;50.432;10.706;2022-07-23T03:19:21;5.73;;;5.23;;
5622;SDS011;2833;50.432;10.706;2022-07-23T03:21:47;5.70;;;4.87;;
5622;SDS011;2833;50.432;10.706;2022-07-23T03:24:12;5.17;;;4.67;;
5622;SDS011;2833;50.432;10.706;2022-07-23T03:26:37;5.00;;;4.47;;
5622;SDS011;2833;50.432;10.706;2022-07-23T03:29:02;7.93;;;4.80;;
5622;SDS011;2833;50.432;10.706;2022-07-23T03:31:29;8.20;;;4.70;;
5622;SDS011;2833;50.432;10.706;2022-07-23T03:33:54;5.37;;;4.87;;
5622;SDS011;2833;50.432;10.706;2022-07-23T03:36:19;6.13;;;5.00;;
5622;SDS011;2833;50.432;10.706;2022-07-23T03:38:44;7.17;;;4.73;;
5622;SDS011;2833;50.432;10.706;2022-07-23T03:41:10;5.37;;;4.87;;
5622;SDS011;2833;50.432;10.706;2022-07-23T03:43:35;14.00;;;5.00;;
5622;SDS011;2833;50.432;10.706;2022-07-23T03:46:00;5.20;;;4.70;;
5622;SDS011;2833;50.432;10.706;2022-07-23T03:48:25;7.53;;;4.70;;
5622;SDS011;2833;50.432;10.706;2022-07-23T03:50:50;5.00;;;4.50;;
5622;SDS011;2833;50.432;10.706;2022-07-23T03:53:16;5.97;;;5.40;;
5622;SDS011;2833;50.432;10.706;2022-07-23T03:55:41;9.30;;;4.80;;
5622;SDS011;2833;50.432;10.706;2022-07-23T03:58:06;9.23;;;5.07;;
5622;SDS011;2833;50.432;10.706;2022-07-23T04:00:31;10.63;;;5.33;;
5622;SDS011;2833;50.432;10.706;2022-07-23T04:02:57;6.10;;;5.50;;
5622;SDS011;2833;50.432;10.706;2022-07-23T04:05:22;5.53;;;5.03;;
5622;SDS011;2833;50.432;10.706;2022-07-23T04:07:47;7.67;;;5.77;;
5622;SDS011;2833;50.432;10.706;2022-07-23T04:10:12;8.70;;;5.60;;
5622;SDS011;2833;50.432;10.706;2022-07-23T04:12:37;7.77;;;5.90;;
5622;SDS011;2833;50.432;10.706;2022-07-23T04:15:03;6.83;;;5.37;;
5622;SDS011;2833;50.432;10.706;2022-07-23T04:17:28;6.53;;;5.87;;
5622;SDS011;2833;50.432;10.706;2022-07-23T04:19:53;5.67;;;5.07;;
5622;SDS011;2833;50.432;10.706;2022-07-23T04:22:18;7.33;;;5.30;;
5622;SDS011;2833;50.432;10.706;2022-07-23T04:24:44;6.63;;;5.93;;
5622;SDS011;2833;50.432;10.706;2022-07-23T04:27:09;10.53;;;5.67;;
5622;SDS011;2833;50.432;10.706;2022-07-23T04:29:34;8.10;;;6.67;;
5622;SDS011;2833;50.432;10.706;2022-07-23T04:31:59;8.17;;;6.30;;
5622;SDS011;2833;50.432;10.706;2022-07-23T04:34:24;7.13;;;6.43;;
5622;SDS011;2833;50.432;10.706;2022-07-23T04:36:51;7.50;;;6.60;;
5622;SDS011;2833;50.432;10.706;2022-07-23T04:39:16;10.97;;;6.33;;
5622;SDS011;2833;50.432;10.706;2022-07-23T04:41:42;7.13;;;6.40;;
5622;SDS011;2833;50.432;10.706;2022-07-23T04:44:07;7.97;;;6.30;;
5622;SDS011;2833;50.432;10.706;2022-07-23T04:46:32;7.10;;;6.40;;
5622;SDS011;2833;50.432;10.706;2022-07-23T04:48:57;9.43;;;6.77;;
5622;SDS011;2833;50.432;10.706;2022-07-23T04:51:22;7.70;;;6.90;;
5622;SDS011;2833;50.432;10.706;2022-07-23T04:53:48;6.83;;;6.13;;
5622;SDS011;2833;50.432;10.706;2022-07-23T04:56:13;8.93;;;7.20;;
5622;SDS011;2833;50.432;10.706;2022-07-23T04:58:38;8.07;;;7.27;;
5622;SDS011;2833;50.432;10.706;2022-07-23T05:01:03;7.50;;;6.70;;
5622;SDS011;2833;50.432;10.706;2022-07-23T05:03:28;8.03;;;7.20;;
5622;SDS011;2833;50.432;10.706;2022-07-23T05:05:54;8.43;;;6.73;;
5622;SDS011;2833;50.432;10.706;2022-07-23T05:08:19;8.50;;;7.17;;
5622;SDS011;2833;50.432;10.706;2022-07-23T05:10:44;8.40;;;7.50;;
5622;SDS011;2833;50.432;10.706;2022-07-23T05:13:09;9.20;;;7.33;;
5622;SDS011;2833;50.432;10.706;2022-07-23T05:15:35;8.43;;;7.57;;
5622;SDS011;2833;50.432;10.706;2022-07-23T05:18:00;12.50;;;7.40;;
5622;SDS011;2833;50.432;10.706;2022-07-23T05:20:25;8.83;;;7.93;;
5622;SDS011;2833;50.432;10.706;2022-07-23T05:22:50;9.03;;;7.80;;
5622;SDS011;2833;50.432;10.706;2022-07-23T05:25:16;9.83;;;7.97;;
5622;SDS011;2833;50.432;10.706;2022-07-23T05:27:41;8.70;;;7.80;;
5622;SDS011;2833;50.432;10.706;2022-07-23T05:30:07;10.03;;;7.37;;
5622;SDS011;2833;50.432;10.706;2022-07-23T05:32:33;10.90;;;8.13;;
5622;SDS011;2833;50.432;10.706;2022-07-23T05:34:58;8.87;;;7.97;;
5622;SDS011;2833;50.432;10.706;2022-07-23T05:37:23;9.80;;;8.43;;
5622;SDS011;2833;50.432;10.706;2022-07-23T05:39:48;8.03;;;7.17;;
5622;SDS011;2833;50.432;10.706;2022-07-23T05:42:14;11.77;;;8.60;;
5622;SDS011;2833;50.432;10.706;2022-07-23T05:44:39;9.40;;;8.40;;
5622;SDS011;2833;50.432;10.706;2022-07-23T05:47:04;14.83;;;8.23;;
5622;SDS011;2833;50.432;10.706;2022-07-23T05:49:29;9.30;;;8.27;;
5622;SDS011;2833;50.432;10.706;2022-07-23T05:51:54;9.73;;;8.10;;
5622;SDS011;2833;50.432;10.706;2022-07-23T05:54:19;9.70;;;8.33;;
5622;SDS011;2833;50.432;10.706;2022-07-23T05:56:45;8.60;;;7.70;;
5622;SDS011;2833;50.432;10.706;2022-07-23T05:59:10;14.10;;;8.97;;
5622;SDS011;2833;50.432;10.706;2022-07-23T06:01:37;9.00;;;7.70;;
5622;SDS011;2833;50.432;10.706;2022-07-23T06:04:03;9.70;;;8.30;;
5622;SDS011;2833;50.432;10.706;2022-07-23T06:06:28;10.83;;;8.60;;
5622;SDS011;2833;50.432;10.706;2022-07-23T06:08:53;9.30;;;8.40;;
5622;SDS011;2833;50.432;10.706;2022-07-23T06:11:18;11.00;;;9.10;;
5622;SDS011;2833;50.432;10.706;2022-07-23T06:13:43;10.77;;;8.17;;
5622;SDS011;2833;50.432;10.706;2022-07-23T06:16:09;11.30;;;9.23;;
5622;SDS011;2833;50.432;10.706;2022-07-23T06:18:34;12.07;;;8.97;;
5622;SDS011;2833;50.432;10.706;2022-07-23T06:20:59;9.10;;;8.10;;
5622;SDS011;2833;50.432;10.706;2022-07-23T06:23:24;8.77;;;7.87;;
5622;SDS011;2833;50.432;10.706;2022-07-23T06:25:49;10.23;;;8.63;;
5622;SDS011;2833;50.432;10.706;2022-07-23T06:28:15;9.33;;;8.10;;
5622;SDS011;2833;50.432;10.706;2022-07-23T06:30:40;12.27;;;8.60;;
5622;SDS011;2833;50.432;10.706;2022-07-23T06:33:05;9.90;;;8.63;;
5622;SDS011;2833;50.432;10.706;2022-07-23T06:35:30;9.40;;;8.40;;
5622;SDS011;2833;50.432;10.706;2022-07-23T06:37:56;12.37;;;9.30;;
5622;SDS011;2833;50.432;10.706;2022-07-23T06:40:21;11.93;;;8.67;;
5622;SDS011;2833;50.432;10.706;2022-07-23T06:42:46;12.93;;;10.10;;
5622;SDS011;2833;50.432;10.706;2022-07-23T06:45:12;12.40;;;10.70;;
5622;SDS011;2833;50.432;10.706;2022-07-23T06:47:37;11.57;;;9.30;;
5622;SDS011;2833;50.432;10.706;2022-07-23T06:50:03;10.50;;;9.20;;
5622;SDS011;2833;50.432;10.706;2022-07-23T06:52:28;10.53;;;9.03;;
5622;SDS011;2833;50.432;10.706;2022-07-23T06:54:53;13.37;;;9.20;;
5622;SDS011;2833;50.432;10.706;2022-07-23T06:57:19;10.13;;;8.50;;
5622;SDS011;2833;50.432;10.706;2022-07-23T06:59:44;10.40;;;8.90;;
5622;SDS011;2833;50.432;10.706;2022-07-23T07:02:09;10.13;;;8.80;;
5622;SDS011;2833;50.432;10.706;2022-07-23T07:04:34;10.43;;;8.90;;
5622;SDS011;2833;50.432;10.706;2022-07-23T07:07:00;11.03;;;8.77;;
5622;SDS011;2833;50.432;10.706;2022-07-23T07:09:25;11.10;;;9.13;;
5622;SDS011;2833;50.432;10.706;2022-07-23T07:11:50;10.37;;;8.40;;
5622;SDS011;2833;50.432;10.706;2022-07-23T07:14:15;11.57;;;9.07;;
5622;SDS011;2833;50.432;10.706;2022-07-23T07:16:41;12.93;;;8.37;;
5622;SDS011;2833;50.432;10.706;2022-07-23T07:19:06;12.33;;;7.67;;
5622;SDS011;2833;50.432;10.706;2022-07-23T07:21:31;10.83;;;8.50;;
5622;SDS011;2833;50.432;10.706;2022-07-23T07:23:56;11.63;;;8.93;;
5622;SDS011;2833;50.432;10.706;2022-07-23T07:26:22;15.33;;;8.23;;
5622;SDS011;2833;50.432;10.706;2022-07-23T07:28:47;10.00;;;8.37;;
5622;SDS011;2833;50.432;10.706;2022-07-23T07:31:12;9.67;;;8.53;;
5622;SDS011;2833;50.432;10.706;2022-07-23T07:33:37;9.73;;;8.10;;
5622;SDS011;2833;50.432;10.706;2022-07-23T07:36:02;11.00;;;8.97;;
5622;SDS011;2833;50.432;10.706;2022-07-23T07:38:28;12.40;;;8.60;;
5622;SDS011;2833;50.432;10.706;2022-07-23T07:40:54;9.17;;;8.27;;
5622;SDS011;2833;50.432;10.706;2022-07-23T07:43:19;12.13;;;9.43;;
5622;SDS011;2833;50.432;10.706;2022-07-23T07:45:44;13.10;;;10.00;;
5622;SDS011;2833;50.432;10.706;2022-07-23T07:48:09;11.13;;;8.87;;
5622;SDS011;2833;50.432;10.706;2022-07-23T07:50:35;13.97;;;8.63;;
5622;SDS011;2833;50.432;10.706;2022-07-23T07:53:00;13.80;;;9.80;;
5622;SDS011;2833;50.432;10.706;2022-07-23T07:55:25;17.00;;;10.17;;
5622;SDS011;2833;50.432;10.706;2022-07-23T07:57:51;10.70;;;9.33;;
5622;SDS011;2833;50.432;10.706;2022-07-23T08:00:17;14.10;;;8.60;;
5622;SDS011;2833;50.432;10.706;2022-07-23T08:02:43;10.63;;;8.70;;
5622;SDS011;2833;50.432;10.706;2022-07-23T08:05:08;9.80;;;8.77;;
5622;SDS011;2833;50.432;10.706;2022-07-23T08:07:34;15.90;;;8.83;;
5622;SDS011;2833;50.432;10.706;2022-07-23T08:09:59;10.43;;;8.73;;
5622;SDS011;2833;50.432;10.706;2022-07-23T08:12:24;9.73;;;8.60;;
5622;SDS011;2833;50.432;10.706;2022-07-23T08:14:50;9.20;;;8.30;;
5622;SDS011;2833;50.432;10.706;2022-07-23T08:17:15;9.40;;;8.20;;
5622;SDS011;2833;50.432;10.706;2022-07-23T08:19:40;11.27;;;8.73;;
5622;SDS011;2833;50.432;10.706;2022-07-23T08:22:05;9.50;;;8.50;;
5622;SDS011;2833;50.432;10.706;2022-07-23T08:24:30;10.43;;;8.90;;
5622;SDS011;2833;50.432;10.706;2022-07-23T08:26:56;10.10;;;9.07;;
5622;SDS011;2833;50.432;10.706;2022-07-23T08:29:21;11.47;;;9.53;;
5622;SDS011;2833;50.432;10.706;2022-07-23T08:31:46;12.90;;;9.03;;
5622;SDS011;2833;50.432;10.706;2022-07-23T08:34:11;9.17;;;7.80;;
5622;SDS011;2833;50.432;10.706;2022-07-23T08:36:36;11.40;;;8.00;;
5622;SDS011;2833;50.432;10.706;2022-07-23T08:39:02;10.73;;;8.77;;
5622;SDS011;2833;50.432;10.706;2022-07-23T08:41:28;14.13;;;8.70;;
5622;SDS011;2833;50.432;10.706;2022-07-23T08:43:53;12.80;;;8.33;;
5622;SDS011;2833;50.432;10.706;2022-07-23T08:46:19;10.00;;;8.50;;
5622;SDS011;2833;50.432;10.706;2022-07-23T08:48:44;8.23;;;7.40;;
5622;SDS011;2833;50.432;10.706;2022-07-23T08:51:12;10.07;;;7.50;;
5622;SDS011;2833;50.432;10.706;2022-07-23T08:53:37;13.63;;;8.60;;
5622;SDS011;2833;50.432;10.706;2022-07-23T08:56:03;11.00;;;8.30;;
5622;SDS011;2833;50.432;10.706;2022-07-23T08:58:29;15.90;;;8.03;;
5622;SDS011;2833;50.432;10.706;2022-07-23T09:00:55;9.70;;;8.70;;
5622;SDS011;2833;50.432;10.706;2022-07-23T09:03:25;8.77;;;7.87;;
5622;SDS011;2833;50.432;10.706;2022-07-23T09:05:51;10.03;;;8.50;;
5622;SDS011;2833;50.432;10.706;2022-07-23T09:08:17;29.33;;;11.50;;
5622;SDS011;2833;50.432;10.706;2022-07-23T09:13:22;13.23;;;9.07;;
5622;SDS011;2833;50.432;10.706;2022-07-23T09:15:48;9.70;;;7.90;;
5622;SDS011;2833;50.432;10.706;2022-07-23T09:18:15;12.83;;;8.47;;
5622;SDS011;2833;50.432;10.706;2022-07-23T09:20:40;8.77;;;7.87;;
5622;SDS011;2833;50.432;10.706;2022-07-23T09:23:06;12.17;;;8.67;;
5622;SDS011;2833;50.432;10.706;2022-07-23T09:25:31;9.93;;;8.40;;
5622;SDS011;2833;50.432;10.706;2022-07-23T09:27:57;14.20;;;10.00;;
5622;SDS011;2833;50.432;10.706;2022-07-23T09:30:28;12.20;;;8.47;;
5622;SDS011;2833;50.432;10.706;2022-07-23T09:33:35;10.20;;;8.60;;
5622;SDS011;2833;50.432;10.706;2022-07-23T09:38:09;8.50;;;7.60;;
5622;SDS011;2833;50.432;10.706;2022-07-23T09:40:35;10.87;;;7.97;;
5622;SDS011;2833;50.432;10.706;2022-07-23T09:43:00;8.80;;;7.83;;
5622;SDS011;2833;50.432;10.706;2022-07-23T09:45:25;8.10;;;7.30;;
5622;SDS011;2833;50.432;10.706;2022-07-23T09:47:50;17.27;;;7.67;;
5622;SDS011;2833;50.432;10.706;2022-07-23T09:50:16;8.23;;;7.40;;
5622;SDS011;2833;50.432;10.706;2022-07-23T09:52:45;10.53;;;8.00;;
5622;SDS011;2833;50.432;10.706;2022-07-23T09:55:12;8.13;;;7.33;;
5622;SDS011;2833;50.432;10.706;2022-07-23T09:57:38;8.47;;;7.60;;
5622;SDS011;2833;50.432;10.706;2022-07-23T10:00:05;7.77;;;7.00;;
5622;SDS011;2833;50.432;10.706;2022-07-23T10:02:32;11.80;;;8.97;;
5622;SDS011;2833;50.432;10.706;2022-07-23T10:04:58;10.50;;;8.10;;
5622;SDS011;2833;50.432;10.706;2022-07-23T10:07:24;11.73;;;9.30;;
5622;SDS011;2833;50.432;10.706;2022-07-23T10:09:51;17.27;;;8.83;;
5622;SDS011;2833;50.432;10.706;2022-07-23T10:12:18;17.03;;;12.30;;
5622;SDS011;2833;50.432;10.706;2022-07-23T10:14:51;14.70;;;11.00;;
5622;SDS011;2833;50.432;10.706;2022-07-23T10:17:16;11.80;;;9.50;;
5622;SDS011;2833;50.432;10.706;2022-07-23T10:19:42;12.70;;;9.03;;
5622;SDS011;2833;50.432;10.706;2022-07-23T10:22:12;10.60;;;9.50;;
5622;SDS011;2833;50.432;10.706;2022-07-23T10:32:20;8.50;;;7.60;;
5622;SDS011;2833;50.432;10.706;2022-07-23T10:37:17;10.77;;;7.83;;
5622;SDS011;2833;50.432;10.706;2022-07-23T10:42:33;10.00;;;8.97;;
5622;SDS011;2833;50.432;10.706;2022-07-23T10:44:58;10.53;;;9.53;;
5622;SDS011;2833;50.432;10.706;2022-07-23T10:47:27;11.97;;;8.90;;
5622;SDS011;2833;50.432;10.706;2022-07-23T10:49:53;9.93;;;8.57;;
5622;SDS011;2833;50.432;10.706;2022-07-23T10:54:47;11.53;;;8.87;;
5622;SDS011;2833;50.432;10.706;2022-07-23T10:57:14;10.47;;;9.00;;
5622;SDS011;2833;50.432;10.706;2022-07-23T11:02:23;10.80;;;9.70;;
5622;SDS011;2833;50.432;10.706;2022-07-23T11:04:52;9.40;;;8.40;;
5622;SDS011;2833;50.432;10.706;2022-07-23T11:07:17;11.27;;;9.50;;
5622;SDS011;2833;50.432;10.706;2022-07-23T11:09:43;10.23;;;9.10;;
5622;SDS011;2833;50.432;10.706;2022-07-23T11:17:31;12.00;;;9.43;;
5622;SDS011;2833;50.432;10.706;2022-07-23T11:22:34;11.13;;;8.87;;
5622;SDS011;2833;50.432;10.706;2022-07-23T11:25:00;11.83;;;10.00;;
5622;SDS011;2833;50.432;10.706;2022-07-23T11:27:36;13.40;;;8.90;;
5622;SDS011;2833;50.432;10.706;2022-07-23T11:30:01;11.90;;;8.83;;
5622;SDS011;2833;50.432;10.706;2022-07-23T11:32:31;9.43;;;8.40;;
5622;SDS011;2833;50.432;10.706;2022-07-23T11:34:58;16.90;;;8.67;;
5622;SDS011;2833;50.432;10.706;2022-07-23T11:37:34;12.57;;;9.30;;
5622;SDS011;2833;50.432;10.706;2022-07-23T11:40:00;11.77;;;9.50;;
5622;SDS011;2833;50.432;10.706;2022-07-23T11:42:25;10.17;;;9.17;;
5622;SDS011;2833;50.432;10.706;2022-07-23T11:44:50;11.27;;;9.70;;
5622;SDS011;2833;50.432;10.706;2022-07-23T11:47:21;10.00;;;8.40;;
5622;SDS011;2833;50.432;10.706;2022-07-23T11:49:53;10.07;;;8.83;;
5622;SDS011;2833;50.432;10.706;2022-07-23T11:52:18;12.80;;;9.53;;
5622;SDS011;2833;50.432;10.706;2022-07-23T11:55:26;10.73;;;9.10;;
5622;SDS011;2833;50.432;10.706;2022-07-23T11:57:36;10.60;;;8.70;;
5622;SDS011;2833;50.432;10.706;2022-07-23T12:00:09;11.33;;;9.70;;
5622;SDS011;2833;50.432;10.706;2022-07-23T12:02:36;13.30;;;10.90;;
5622;SDS011;2833;50.432;10.706;2022-07-23T12:05:01;12.10;;;9.33;;
5622;SDS011;2833;50.432;10.706;2022-07-23T12:07:36;10.93;;;8.90;;
5622;SDS011;2833;50.432;10.706;2022-07-23T12:13:04;10.00;;;8.93;;
5622;SDS011;2833;50.432;10.706;2022-07-23T12:15:26;9.73;;;8.73;;
5622;SDS011;2833;50.432;10.706;2022-07-23T12:17:51;8.63;;;7.53;;
5622;SDS011;2833;50.432;10.706;2022-07-23T12:20:26;10.20;;;8.53;;
5622;SDS011;2833;50.432;10.706;2022-07-23T12:22:55;9.90;;;8.50;;
5622;SDS011;2833;50.432;10.706;2022-07-23T12:25:21;10.23;;;8.47;;
5622;SDS011;2833;50.432;10.706;2022-07-23T12:27:57;14.90;;;7.70;;
5622;SDS011;2833;50.432;10.706;2022-07-23T12:30:23;10.90;;;7.80;;
5622;SDS011;2833;50.432;10.706;2022-07-23T12:32:50;11.87;;;8.13;;
5622;SDS011;2833;50.432;10.706;2022-07-23T12:35:16;9.33;;;7.93;;
5622;SDS011;2833;50.432;10.706;2022-07-23T12:37:42;8.60;;;7.60;;
5622;SDS011;2833;50.432;10.706;2022-07-23T12:40:21;8.97;;;8.03;;
5622;SDS011;2833;50.432;10.706;2022-07-23T12:42:51;8.87;;;7.60;;
5622;SDS011;2833;50.432;10.706;2022-07-23T12:45:16;15.77;;;7.70;;
5622;SDS011;2833;50.432;10.706;2022-07-23T12:53:06;8.50;;;7.70;;
5622;SDS011;2833;50.432;10.706;2022-07-23T12:55:32;8.37;;;6.70;;
5622;SDS011;2833;50.432;10.706;2022-07-23T12:58:04;10.20;;;7.33;;
5622;SDS011;2833;50.432;10.706;2022-07-23T13:00:30;9.40;;;8.40;;
5622;SDS011;2833;50.432;10.706;2022-07-23T13:02:55;9.50;;;7.67;;
5622;SDS011;2833;50.432;10.706;2022-07-23T13:05:20;7.97;;;7.00;;
5622;SDS011;2833;50.432;10.706;2022-07-23T13:07:46;10.33;;;8.03;;
5622;SDS011;2833;50.432;10.706;2022-07-23T13:10:11;8.17;;;7.30;;
5622;SDS011;2833;50.432;10.706;2022-07-23T13:12:37;9.63;;;7.83;;
5622;SDS011;2833;50.432;10.706;2022-07-23T13:15:02;18.73;;;6.90;;
5622;SDS011;2833;50.432;10.706;2022-07-23T13:17:27;10.10;;;7.47;;
5622;SDS011;2833;50.432;10.706;2022-07-23T13:19:52;10.77;;;7.43;;
5622;SDS011;2833;50.432;10.706;2022-07-23T13:22:18;11.63;;;8.13;;
5622;SDS011;2833;50.432;10.706;2022-07-23T13:24:43;8.67;;;7.10;;
5622;SDS011;2833;50.432;10.706;2022-07-23T13:27:08;9.37;;;7.70;;
5622;SDS011;2833;50.432;10.706;2022-07-23T13:29:33;12.73;;;7.70;;
5622;SDS011;2833;50.432;10.706;2022-07-23T13:31:58;8.33;;;7.13;;
5622;SDS011;2833;50.432;10.706;2022-07-23T13:34:24;13.83;;;7.87;;
5622;SDS011;2833;50.432;10.706;2022-07-23T13:36:49;10.27;;;7.30;;
5622;SDS011;2833;50.432;10.706;2022-07-23T13:39:14;10.40;;;8.93;;
5622;SDS011;2833;50.432;10.706;2022-07-23T13:41:39;10.10;;;7.93;;
5622;SDS011;2833;50.432;10.706;2022-07-23T13:44:04;9.37;;;7.53;;
5622;SDS011;2833;50.432;10.706;2022-07-23T13:46:30;13.73;;;7.50;;
5622;SDS011;2833;50.432;10.706;2022-07-23T13:48:55;11.80;;;8.03;;
5622;SDS011;2833;50.432;10.706;2022-07-23T13:51:20;7.67;;;6.87;;
5622;SDS011;2833;50.432;10.706;2022-07-23T13:53:46;10.63;;;8.23;;
5622;SDS011;2833;50.432;10.706;2022-07-23T13:56:11;15.00;;;7.50;;
5622;SDS011;2833;50.432;10.706;2022-07-23T13:58:36;10.23;;;8.10;;
5622;SDS011;2833;50.432;10.706;2022-07-23T14:01:01;8.93;;;7.40;;
5622;SDS011;2833;50.432;10.706;2022-07-23T14:03:27;9.00;;;7.70;;
5622;SDS011;2833;50.432;10.706;2022-07-23T14:05:52;9.47;;;7.63;;
5622;SDS011;2833;50.432;10.706;2022-07-23T14:08:17;8.67;;;7.30;;
5622;SDS011;2833;50.432;10.706;2022-07-23T14:10:42;10.27;;;7.90;;
5622;SDS011;2833;50.432;10.706;2022-07-23T14:13:08;9.00;;;7.30;;
5622;SDS011;2833;50.432;10.706;2022-07-23T14:15:33;10.93;;;7.07;;
5622;SDS011;2833;50.432;10.706;2022-07-23T14:17:58;12.23;;;7.00;;
5622;SDS011;2833;50.432;10.706;2022-07-23T14:20:24;8.90;;;7.50;;
5622;SDS011;2833;50.432;10.706;2022-07-23T14:22:50;10.00;;;7.50;;
5622;SDS011;2833;50.432;10.706;2022-07-23T14:25:15;11.10;;;8.13;;
5622;SDS011;2833;50.432;10.706;2022-07-23T14:27:41;8.70;;;6.90;;
5622;SDS011;2833;50.432;10.706;2022-07-23T14:30:07;10.23;;;6.80;;
5622;SDS011;2833;50.432;10.706;2022-07-23T14:32:32;11.27;;;7.40;;
5622;SDS011;2833;50.432;10.706;2022-07-23T14:34:57;8.90;;;7.60;;
5622;SDS011;2833;50.432;10.706;2022-07-23T14:37:23;10.40;;;6.47;;
5622;SDS011;2833;50.432;10.706;2022-07-23T14:39:49;16.80;;;6.77;;
5622;SDS011;2833;50.432;10.706;2022-07-23T14:42:14;7.77;;;5.90;;
5622;SDS011;2833;50.432;10.706;2022-07-23T14:44:40;9.53;;;6.80;;
5622;SDS011;2833;50.432;10.706;2022-07-23T14:47:07;7.13;;;6.50;;
5622;SDS011;2833;50.432;10.706;2022-07-23T14:49:32;9.00;;;6.23;;
5622;SDS011;2833;50.432;10.706;2022-07-23T14:51:57;7.27;;;6.57;;
5622;SDS011;2833;50.432;10.706;2022-07-23T14:54:23;10.30;;;6.40;;
5622;SDS011;2833;50.432;10.706;2022-07-23T14:56:50;7.77;;;6.50;;
5622;SDS011;2833;50.432;10.706;2022-07-23T14:59:16;9.70;;;6.30;;
5622;SDS011;2833;50.432;10.706;2022-07-23T15:01:41;10.83;;;6.20;;
5622;SDS011;2833;50.432;10.706;2022-07-23T15:04:06;8.93;;;6.00;;
5622;SDS011;2833;50.432;10.706;2022-07-23T15:06:32;8.43;;;6.77;;
5622;SDS011;2833;50.432;10.706;2022-07-23T15:08:57;10.00;;;6.20;;
5622;SDS011;2833;50.432;10.706;2022-07-23T15:11:22;8.53;;;6.70;;
5622;SDS011;2833;50.432;10.706;2022-07-23T15:13:48;9.60;;;6.03;;
5622;SDS011;2833;50.432;10.706;2022-07-23T15:16:13;7.93;;;6.53;;
5622;SDS011;2833;50.432;10.706;2022-07-23T15:18:38;9.73;;;6.63;;
5622;SDS011;2833;50.432;10.706;2022-07-23T15:21:03;7.90;;;6.40;;
5622;SDS011;2833;50.432;10.706;2022-07-23T15:23:29;9.03;;;6.37;;
5622;SDS011;2833;50.432;10.706;2022-07-23T15:25:55;6.73;;;6.07;;